Time;durP1;ratioP1;P1;durP2;ratioP2;P2;SDS_P1;SDS_P2;PMS_P1;PMS_P2;Temp;Humidity;BMP_temperature;BMP_pressure;BME280_temperature;BME280_humidity;BME280_pressure;Samples;Min_cycle;Max_cycle;Signal;HPM_P1;HPM_P2
2022/08/31 00:05:28;;;;;;;5.60;1.48;;;;;;;;;;5049405;28;20125;-59
2022/08/31 00:07:54;;;;;;;3.60;1.35;;;;;;;;;;5050898;28;20116;-59
2022/08/31 00:10:20;;;;;;;3.45;1.38;;;;;;;;;;5047612;28;20063;-59
2022/08/31 00:12:48;;;;;;;3.13;1.42;;;;;;;;;;5049301;28;20025;-59
2022/08/31 00:15:15;;;;;;;2.13;1.15;;;;;;;;;;5048996;28;20461;-59
2022/08/31 00:17:42;;;;;;;3.88;1.25;;;;;;;;;;5049391;28;20124;-58
2022/08/31 00:20:09;;;;;;;3.38;1.60;;;;;;;;;;5048641;28;20090;-59
2022/08/31 00:22:35;;;;;;;3.05;1.40;;;;;;;;;;5048473;28;20029;-60
2022/08/31 00:25:01;;;;;;;3.17;1.40;;;;;;;;;;5050900;28;20048;-60
2022/08/31 00:27:27;;;;;;;3.42;1.17;;;;;;;;;;5049462;28;20445;-60
2022/08/31 00:29:53;;;;;;;3.97;1.30;;;;;;;;;;5046811;28;20025;-58
2022/08/31 00:32:19;;;;;;;1.20;0.93;;;;;;;;;;5052347;28;20037;-59
2022/08/31 00:34:45;;;;;;;1.38;1.00;;;;;;;;;;5050860;28;20037;-59
2022/08/31 00:37:11;;;;;;;3.95;1.17;;;;;;;;;;5052613;28;20075;-59
2022/08/31 00:39:37;;;;;;;6.43;2.17;;;;;;;;;;5052594;28;20033;-60
2022/08/31 00:42:04;;;;;;;2.25;1.02;;;;;;;;;;5053144;28;20025;-58
2022/08/31 00:44:30;;;;;;;4.93;1.35;;;;;;;;;;5052400;28;20036;-59
2022/08/31 00:46:56;;;;;;;2.45;1.20;;;;;;;;;;5052379;28;20036;-59
2022/08/31 00:49:27;;;;;;;4.80;1.38;;;;;;;;;;5050606;28;20103;-59
2022/08/31 00:51:55;;;;;;;2.65;1.30;;;;;;;;;;5053523;28;20544;-59
2022/08/31 00:54:25;;;;;;;4.22;1.50;;;;;;;;;;5051551;28;20519;-59
2022/08/31 00:56:51;;;;;;;2.40;1.10;;;;;;;;;;5051828;28;20033;-60
2022/08/31 00:59:19;;;;;;;2.55;1.20;;;;;;;;;;5050349;28;20040;-59
2022/08/31 01:01:45;;;;;;;2.00;1.08;;;;;;;;;;5051703;28;20036;-59
2022/08/31 01:04:11;;;;;;;1.92;1.15;;;;;;;;;;5052048;28;20446;-59
2022/08/31 01:06:37;;;;;;;5.63;1.52;;;;;;;;;;5051219;28;20111;-59
2022/08/31 01:09:04;;;;;;;3.45;1.58;;;;;;;;;;5049662;28;20473;-59
2022/08/31 01:11:31;;;;;;;4.50;1.27;;;;;;;;;;5051976;28;20021;-58
2022/08/31 01:13:57;;;;;;;4.53;1.52;;;;;;;;;;5051808;28;20032;-59
2022/08/31 01:16:25;;;;;;;2.88;1.08;;;;;;;;;;5052972;28;20516;-59
2022/08/31 01:18:53;;;;;;;6.03;1.30;;;;;;;;;;5050834;28;20381;-59
2022/08/31 01:21:25;;;;;;;1.83;1.17;;;;;;;;;;5051348;28;20446;-59
2022/08/31 01:23:51;;;;;;;1.73;1.10;;;;;;;;;;5048666;28;20548;-59
2022/08/31 01:26:19;;;;;;;2.53;1.13;;;;;;;;;;5051238;28;20137;-59
2022/08/31 01:28:45;;;;;;;4.15;1.20;;;;;;;;;;5051598;28;20032;-58
2022/08/31 01:31:19;;;;;;;2.35;1.08;;;;;;;;;;5050207;28;20029;-58
2022/08/31 01:33:45;;;;;;;4.60;1.25;;;;;;;;;;5051235;28;20033;-58
2022/08/31 01:36:12;;;;;;;1.85;1.20;;;;;;;;;;5050798;28;20739;-59
2022/08/31 01:38:38;;;;;;;1.80;1.17;;;;;;;;;;5049286;28;20032;-59
2022/08/31 01:41:05;;;;;;;4.60;1.60;;;;;;;;;;5052285;28;20075;-59
2022/08/31 01:43:34;;;;;;;2.55;1.33;;;;;;;;;;5052658;28;20024;-60
2022/08/31 01:46:01;;;;;;;1.98;1.48;;;;;;;;;;5045738;28;20029;-60
2022/08/31 01:48:27;;;;;;;2.42;1.30;;;;;;;;;;5049474;28;20037;-59
2022/08/31 01:50:54;;;;;;;2.63;1.30;;;;;;;;;;5049236;28;20029;-61
2022/08/31 01:53:20;;;;;;;3.92;0.90;;;;;;;;;;5052025;28;20032;-58
2022/08/31 01:55:46;;;;;;;2.30;1.13;;;;;;;;;;5050348;28;20067;-60
2022/08/31 01:58:12;;;;;;;5.32;1.40;;;;;;;;;;5052576;28;20028;-60
2022/08/31 02:00:38;;;;;;;2.78;1.10;;;;;;;;;;5050209;28;20048;-59
2022/08/31 02:03:06;;;;;;;2.08;1.30;;;;;;;;;;5051384;28;20026;-59
2022/08/31 02:05:32;;;;;;;3.08;1.13;;;;;;;;;;5049480;28;20028;-59
2022/08/31 02:07:58;;;;;;;4.22;1.10;;;;;;;;;;5050985;28;20029;-58
2022/08/31 02:10:24;;;;;;;4.97;1.15;;;;;;;;;;5051211;28;20052;-58
2022/08/31 02:12:50;;;;;;;5.40;2.08;;;;;;;;;;5051685;28;20031;-58
2022/08/31 02:15:16;;;;;;;3.22;1.10;;;;;;;;;;5050824;28;20111;-59
2022/08/31 02:17:42;;;;;;;1.33;1.02;;;;;;;;;;5052295;28;20346;-58
2022/08/31 02:20:10;;;;;;;4.40;1.40;;;;;;;;;;5050264;28;20033;-59
2022/08/31 02:22:36;;;;;;;2.03;1.20;;;;;;;;;;5052370;28;20017;-59
2022/08/31 02:25:02;;;;;;;2.15;1.10;;;;;;;;;;5049398;28;20095;-59
2022/08/31 02:27:28;;;;;;;2.25;1.30;;;;;;;;;;5051341;28;20104;-59
2022/08/31 02:29:53;;;;;;;6.03;1.08;;;;;;;;;;5050727;28;20483;-59
2022/08/31 02:32:20;;;;;;;1.35;0.80;;;;;;;;;;5048219;28;20053;-58
2022/08/31 02:34:46;;;;;;;3.65;1.23;;;;;;;;;;5050815;28;20465;-59
2022/08/31 02:37:12;;;;;;;3.50;1.30;;;;;;;;;;5050567;28;20080;-59
2022/08/31 02:39:38;;;;;;;3.75;1.25;;;;;;;;;;5051440;28;20029;-59
2022/08/31 02:42:04;;;;;;;6.65;0.98;;;;;;;;;;5043861;28;20497;-59
2022/08/31 02:44:30;;;;;;;1.58;1.00;;;;;;;;;;5050937;28;20061;-58
2022/08/31 02:46:56;;;;;;;2.08;1.15;;;;;;;;;;5048811;28;20049;-59
2022/08/31 02:49:22;;;;;;;2.67;1.27;;;;;;;;;;5048853;28;20381;-59
2022/08/31 02:51:48;;;;;;;3.97;1.33;;;;;;;;;;5050838;28;20028;-59
2022/08/31 02:54:14;;;;;;;3.47;1.10;;;;;;;;;;5050012;28;20116;-59
2022/08/31 02:56:40;;;;;;;3.25;1.20;;;;;;;;;;5050709;28;20453;-60
2022/08/31 02:59:07;;;;;;;5.90;1.63;;;;;;;;;;5047583;28;20040;-59
2022/08/31 03:01:33;;;;;;;4.25;1.33;;;;;;;;;;5049245;28;20047;-59
2022/08/31 03:03:59;;;;;;;2.47;1.23;;;;;;;;;;5049719;28;20491;-60
2022/08/31 03:06:26;;;;;;;2.88;1.15;;;;;;;;;;5049639;28;20064;-59
2022/08/31 03:08:52;;;;;;;3.22;1.33;;;;;;;;;;5050186;28;20124;-59
2022/08/31 03:11:18;;;;;;;2.55;1.00;;;;;;;;;;5049567;28;20021;-60
2022/08/31 03:13:44;;;;;;;2.65;1.20;;;;;;;;;;5049055;28;20029;-58
2022/08/31 03:16:12;;;;;;;2.28;1.05;;;;;;;;;;5049195;28;20036;-58
2022/08/31 03:18:38;;;;;;;4.00;1.20;;;;;;;;;;5050380;28;20056;-59
2022/08/31 03:21:04;;;;;;;3.60;1.40;;;;;;;;;;5049381;28;20098;-58
2022/08/31 03:23:29;;;;;;;3.33;1.30;;;;;;;;;;5049777;28;20037;-59
2022/08/31 03:25:56;;;;;;;1.77;1.10;;;;;;;;;;5048679;28;20021;-58
2022/08/31 03:28:21;;;;;;;2.55;1.08;;;;;;;;;;5049664;28;20021;-60
2022/08/31 03:30:48;;;;;;;4.50;1.30;;;;;;;;;;5048573;28;20028;-61
2022/08/31 03:33:14;;;;;;;1.48;1.10;;;;;;;;;;5050178;28;20560;-58
2022/08/31 03:35:44;;;;;;;2.30;1.02;;;;;;;;;;5050671;28;20033;-59
2022/08/31 03:38:11;;;;;;;1.48;1.05;;;;;;;;;;5050795;28;20024;-59
2022/08/31 03:40:38;;;;;;;2.83;1.35;;;;;;;;;;5049225;28;20119;-58
2022/08/31 03:43:05;;;;;;;5.13;1.50;;;;;;;;;;5050354;28;20039;-59
2022/08/31 03:45:31;;;;;;;2.28;1.33;;;;;;;;;;5050509;28;20021;-59
2022/08/31 03:47:58;;;;;;;5.78;1.42;;;;;;;;;;5040068;28;20040;-58
2022/08/31 03:50:24;;;;;;;3.55;1.60;;;;;;;;;;5049890;28;20033;-58
2022/08/31 03:52:51;;;;;;;2.58;1.30;;;;;;;;;;5048722;28;20421;-59
2022/08/31 03:55:17;;;;;;;1.75;1.15;;;;;;;;;;5048312;28;20052;-58
2022/08/31 03:57:43;;;;;;;1.90;1.30;;;;;;;;;;5050769;28;20063;-58
2022/08/31 04:00:10;;;;;;;3.63;1.40;;;;;;;;;;5053171;28;20036;-60
2022/08/31 04:02:37;;;;;;;3.78;1.60;;;;;;;;;;5053233;28;20028;-59
2022/08/31 04:05:04;;;;;;;1.95;1.20;;;;;;;;;;5050616;28;20048;-60
2022/08/31 04:07:29;;;;;;;3.08;1.48;;;;;;;;;;5052640;28;20129;-58
2022/08/31 04:09:55;;;;;;;4.25;1.20;;;;;;;;;;5050624;28;20079;-60
2022/08/31 04:12:21;;;;;;;3.58;1.40;;;;;;;;;;5050745;28;20393;-59
2022/08/31 04:14:47;;;;;;;3.90;1.63;;;;;;;;;;5051334;28;20025;-59
2022/08/31 04:17:13;;;;;;;2.08;1.27;;;;;;;;;;5051713;28;20527;-59
2022/08/31 04:19:40;;;;;;;2.67;1.30;;;;;;;;;;5052699;28;20037;-60
2022/08/31 04:22:06;;;;;;;5.85;1.60;;;;;;;;;;5051177;28;20385;-59
2022/08/31 04:24:32;;;;;;;3.28;1.30;;;;;;;;;;5049840;28;20028;-59
2022/08/31 04:26:58;;;;;;;7.57;1.60;;;;;;;;;;5048594;28;20400;-60
2022/08/31 04:29:24;;;;;;;4.80;1.63;;;;;;;;;;5053222;28;20040;-61
2022/08/31 04:31:50;;;;;;;3.20;1.55;;;;;;;;;;5043509;28;20029;-59
2022/08/31 04:34:16;;;;;;;4.93;1.73;;;;;;;;;;5053371;28;20033;-59
2022/08/31 04:36:46;;;;;;;3.67;2.10;;;;;;;;;;5051959;28;20044;-58
2022/08/31 04:39:13;;;;;;;3.65;1.88;;;;;;;;;;5051759;28;20033;-58
2022/08/31 04:41:40;;;;;;;3.35;1.52;;;;;;;;;;5050463;28;20033;-60
2022/08/31 04:44:06;;;;;;;6.65;1.73;;;;;;;;;;5049637;28;20039;-60
2022/08/31 04:46:34;;;;;;;4.00;1.45;;;;;;;;;;5050934;28;20057;-59
2022/08/31 04:49:00;;;;;;;3.80;1.60;;;;;;;;;;5048193;28;20024;-58
2022/08/31 04:51:28;;;;;;;2.88;1.30;;;;;;;;;;5050581;28;20100;-58
2022/08/31 04:53:54;;;;;;;4.43;1.55;;;;;;;;;;5049624;28;20050;-59
2022/08/31 04:56:25;;;;;;;2.63;1.63;;;;;;;;;;5050438;28;20039;-59
2022/08/31 04:58:52;;;;;;;2.72;1.52;;;;;;;;;;5050850;28;20106;-59
2022/08/31 05:01:20;;;;;;;4.30;2.00;;;;;;;;;;5050861;28;20089;-59
2022/08/31 05:03:51;;;;;;;4.28;1.40;;;;;;;;;;5049581;28;20392;-59
2022/08/31 05:06:18;;;;;;;7.20;1.92;;;;;;;;;;5048433;28;20048;-59
2022/08/31 05:08:44;;;;;;;6.90;1.88;;;;;;;;;;5047706;28;20040;-59
2022/08/31 05:11:11;;;;;;;4.35;1.63;;;;;;;;;;5052804;28;20024;-59
2022/08/31 05:13:37;;;;;;;2.70;1.60;;;;;;;;;;5052489;28;20033;-58
2022/08/31 05:16:04;;;;;;;2.55;1.63;;;;;;;;;;5047588;28;20100;-60
2022/08/31 05:18:30;;;;;;;3.50;2.05;;;;;;;;;;5050770;28;20479;-59
2022/08/31 05:20:56;;;;;;;6.18;2.25;;;;;;;;;;5050854;28;20158;-60
2022/08/31 05:23:22;;;;;;;3.50;1.98;;;;;;;;;;5048685;28;20666;-58
2022/08/31 05:25:48;;;;;;;7.50;1.80;;;;;;;;;;5053366;28;20021;-59
2022/08/31 05:28:15;;;;;;;3.58;1.88;;;;;;;;;;5051524;28;20033;-59
2022/08/31 05:30:44;;;;;;;8.98;2.40;;;;;;;;;;5042735;28;20035;-59
2022/08/31 05:33:10;;;;;;;5.75;1.95;;;;;;;;;;5049413;28;20037;-59
2022/08/31 05:35:36;;;;;;;5.22;2.15;;;;;;;;;;5051532;28;20029;-59
2022/08/31 05:38:02;;;;;;;5.22;2.30;;;;;;;;;;5053008;28;20037;-58
2022/08/31 05:40:28;;;;;;;4.68;2.17;;;;;;;;;;5047993;28;20089;-59
2022/08/31 05:42:58;;;;;;;3.67;1.83;;;;;;;;;;5051534;28;20492;-58
2022/08/31 05:45:24;;;;;;;3.85;2.45;;;;;;;;;;5051167;28;20075;-62
2022/08/31 05:47:50;;;;;;;5.75;2.40;;;;;;;;;;5049791;28;20028;-58
2022/08/31 05:50:17;;;;;;;5.25;2.85;;;;;;;;;;5050779;28;20028;-58
2022/08/31 05:52:43;;;;;;;6.43;2.38;;;;;;;;;;5043054;28;20113;-61
2022/08/31 05:55:10;;;;;;;9.90;2.58;;;;;;;;;;5048422;28;20060;-62
2022/08/31 05:57:39;;;;;;;3.10;2.22;;;;;;;;;;5050601;28;20043;-61
2022/08/31 06:00:05;;;;;;;5.78;2.45;;;;;;;;;;5037688;28;20029;-61
2022/08/31 06:02:31;;;;;;;4.15;2.25;;;;;;;;;;5048929;28;20082;-61
2022/08/31 06:04:57;;;;;;;4.65;2.13;;;;;;;;;;5048597;28;20036;-58
2022/08/31 06:07:23;;;;;;;4.72;2.05;;;;;;;;;;5047244;28;20028;-60
2022/08/31 06:09:49;;;;;;;4.22;2.10;;;;;;;;;;5047950;28;20032;-60
2022/08/31 06:12:18;;;;;;;5.97;1.88;;;;;;;;;;5047664;28;20037;-61
2022/08/31 06:14:45;;;;;;;5.80;2.53;;;;;;;;;;5053502;28;20087;-60
2022/08/31 06:17:11;;;;;;;3.58;2.40;;;;;;;;;;5050671;28;20039;-60
2022/08/31 06:19:37;;;;;;;13.82;2.08;;;;;;;;;;5047362;28;20040;-61
2022/08/31 06:22:03;;;;;;;3.88;1.90;;;;;;;;;;5049422;28;20035;-60
2022/08/31 06:24:30;;;;;;;2.92;1.63;;;;;;;;;;5048127;28;20025;-60
2022/08/31 06:26:57;;;;;;;6.70;2.35;;;;;;;;;;5054256;28;20025;-62
2022/08/31 06:29:23;;;;;;;7.30;1.42;;;;;;;;;;5043575;28;20056;-61
2022/08/31 06:31:50;;;;;;;8.05;1.55;;;;;;;;;;5043226;28;20087;-60
2022/08/31 06:34:17;;;;;;;11.50;1.67;;;;;;;;;;5050072;28;20398;-60
2022/08/31 06:36:43;;;;;;;5.45;1.60;;;;;;;;;;5046960;28;20025;-62
2022/08/31 06:39:11;;;;;;;5.40;1.35;;;;;;;;;;5058774;28;20388;-61
2022/08/31 06:41:37;;;;;;;2.42;1.20;;;;;;;;;;5055987;28;20672;-60
2022/08/31 06:44:04;;;;;;;4.45;1.20;;;;;;;;;;5051832;28;20089;-60
2022/08/31 06:46:31;;;;;;;5.03;1.20;;;;;;;;;;5053372;28;20098;-60
2022/08/31 06:48:57;;;;;;;3.47;1.20;;;;;;;;;;5057180;28;20025;-60
2022/08/31 06:51:23;;;;;;;1.73;1.10;;;;;;;;;;5049685;28;20029;-61
2022/08/31 06:53:49;;;;;;;3.85;1.10;;;;;;;;;;5050280;28;20039;-60
2022/08/31 06:56:17;;;;;;;7.05;0.80;;;;;;;;;;5050204;28;20037;-60
2022/08/31 06:58:43;;;;;;;8.73;0.90;;;;;;;;;;5047297;28;20028;-60
2022/08/31 07:01:13;;;;;;;4.50;1.05;;;;;;;;;;5048246;28;20056;-61
2022/08/31 07:03:40;;;;;;;5.97;0.88;;;;;;;;;;5050862;28;20112;-61
2022/08/31 07:06:07;;;;;;;3.00;0.70;;;;;;;;;;5051571;28;20029;-60
2022/08/31 07:08:34;;;;;;;4.00;1.23;;;;;;;;;;5051156;28;20108;-60
2022/08/31 07:11:00;;;;;;;1.75;0.60;;;;;;;;;;5048838;28;20439;-61
2022/08/31 07:13:26;;;;;;;3.35;0.95;;;;;;;;;;5051419;28;20025;-60
2022/08/31 07:16:02;;;;;;;5.10;0.77;;;;;;;;;;5044701;28;20037;-60
2022/08/31 07:18:28;;;;;;;1.88;0.77;;;;;;;;;;5047970;28;20028;-60
2022/08/31 07:20:54;;;;;;;3.70;0.73;;;;;;;;;;5051204;28;20400;-60
2022/08/31 07:23:20;;;;;;;2.58;0.70;;;;;;;;;;5050579;28;20029;-61
2022/08/31 07:25:46;;;;;;;2.42;0.60;;;;;;;;;;5051450;28;20017;-60
2022/08/31 07:28:12;;;;;;;1.98;0.52;;;;;;;;;;5041356;28;20030;-60
2022/08/31 07:30:40;;;;;;;5.30;0.70;;;;;;;;;;5051120;28;20013;-60
2022/08/31 07:33:07;;;;;;;1.67;0.70;;;;;;;;;;5053946;28;20025;-60
2022/08/31 07:35:33;;;;;;;6.47;0.80;;;;;;;;;;5054106;28;20110;-61
2022/08/31 07:43:29;;;;;;;3.58;0.70;;;;;;;;;;5054949;28;20044;-60
2022/08/31 07:45:55;;;;;;;4.70;0.75;;;;;;;;;;5053229;28;20067;-60
2022/08/31 07:48:21;;;;;;;2.67;0.88;;;;;;;;;;5054446;28;20032;-60
2022/08/31 07:50:46;;;;;;;3.58;0.80;;;;;;;;;;5054809;28;20025;-59
2022/08/31 07:53:13;;;;;;;3.28;0.90;;;;;;;;;;5053426;28;20032;-60
2022/08/31 07:55:40;;;;;;;4.38;0.70;;;;;;;;;;5054744;28;20028;-60
2022/08/31 07:58:11;;;;;;;1.95;0.70;;;;;;;;;;5053278;28;20021;-60
2022/08/31 08:00:38;;;;;;;4.20;0.57;;;;;;;;;;5040908;28;20022;-60
2022/08/31 08:03:09;;;;;;;2.80;0.50;;;;;;;;;;5054720;28;20110;-61
2022/08/31 08:05:40;;;;;;;1.92;0.50;;;;;;;;;;5054997;28;20029;-60
2022/08/31 08:08:07;;;;;;;2.60;0.60;;;;;;;;;;5054863;28;20025;-59
2022/08/31 08:10:33;;;;;;;2.60;0.60;;;;;;;;;;5047275;28;20067;-59
2022/08/31 08:13:02;;;;;;;1.65;0.50;;;;;;;;;;5054896;28;20021;-59
2022/08/31 08:15:28;;;;;;;2.85;0.73;;;;;;;;;;5054854;28;20468;-59
2022/08/31 08:17:54;;;;;;;1.48;0.75;;;;;;;;;;5054122;28;20020;-60
2022/08/31 08:20:20;;;;;;;2.17;0.70;;;;;;;;;;5053531;28;20472;-59
2022/08/31 08:22:46;;;;;;;0.80;0.50;;;;;;;;;;5054678;28;20075;-59
2022/08/31 08:25:13;;;;;;;2.90;0.70;;;;;;;;;;5053457;28;20033;-60
2022/08/31 08:27:39;;;;;;;0.65;0.32;;;;;;;;;;5052572;28;20021;-60
2022/08/31 08:30:06;;;;;;;4.75;0.40;;;;;;;;;;5053374;28;20035;-60
2022/08/31 08:32:33;;;;;;;4.15;0.82;;;;;;;;;;5052124;28;20035;-60
2022/08/31 08:34:59;;;;;;;1.38;0.50;;;;;;;;;;5043368;28;20606;-59
2022/08/31 08:37:26;;;;;;;5.00;0.80;;;;;;;;;;5054550;28;20052;-59
2022/08/31 08:39:53;;;;;;;1.77;0.50;;;;;;;;;;5052380;28;20039;-60
2022/08/31 08:42:20;;;;;;;1.75;0.70;;;;;;;;;;5047783;28;20037;-60
2022/08/31 08:44:46;;;;;;;1.83;0.50;;;;;;;;;;5050357;28;20029;-59
2022/08/31 08:47:14;;;;;;;1.52;0.60;;;;;;;;;;5054108;28;20025;-60
2022/08/31 08:49:48;;;;;;;1.77;0.68;;;;;;;;;;5053422;28;20028;-60
2022/08/31 08:52:20;;;;;;;1.40;0.50;;;;;;;;;;5046061;28;20104;-60
2022/08/31 08:54:48;;;;;;;2.67;0.73;;;;;;;;;;5047657;28;20527;-60
2022/08/31 08:57:17;;;;;;;2.70;0.73;;;;;;;;;;5054131;28;20033;-60
2022/08/31 08:59:44;;;;;;;2.10;0.77;;;;;;;;;;5053272;28;20025;-62
2022/08/31 09:02:21;;;;;;;4.15;0.47;;;;;;;;;;5053758;28;20024;-60
2022/08/31 09:04:58;;;;;;;1.95;0.80;;;;;;;;;;5053572;28;20021;-59
2022/08/31 09:07:32;;;;;;;1.38;0.57;;;;;;;;;;5053335;28;20036;-59
2022/08/31 09:10:14;;;;;;;1.90;0.52;;;;;;;;;;5042144;28;20042;-59
2022/08/31 09:12:51;;;;;;;1.48;0.63;;;;;;;;;;5052904;28;20162;-60
2022/08/31 09:15:36;;;;;;;2.30;0.50;;;;;;;;;;5053546;28;20059;-60
2022/08/31 09:18:14;;;;;;;1.08;0.50;;;;;;;;;;5053653;28;20486;-60
2022/08/31 09:20:40;;;;;;;4.43;0.80;;;;;;;;;;5052892;28;20112;-59
2022/08/31 09:23:06;;;;;;;0.98;0.32;;;;;;;;;;5051908;28;20036;-60
2022/08/31 09:25:50;;;;;;;3.80;0.77;;;;;;;;;;5051144;28;20926;-60
2022/08/31 09:28:17;;;;;;;2.60;0.60;;;;;;;;;;5042806;28;20029;-59
2022/08/31 09:30:43;;;;;;;2.17;0.45;;;;;;;;;;5048312;28;20499;-61
2022/08/31 09:33:29;;;;;;;1.55;0.50;;;;;;;;;;5051117;28;20025;-59
2022/08/31 09:36:12;;;;;;;1.63;0.38;;;;;;;;;;5052175;28;20174;-60
2022/08/31 09:38:39;;;;;;;;;;;;;;;;;;5051709;28;20122;-60
2022/08/31 09:41:19;;;;;;;3.20;0.63;;;;;;;;;;5052613;28;19996;-60
2022/08/31 09:43:46;;;;;;;2.53;0.40;;;;;;;;;;5049585;28;20548;-59
2022/08/31 09:46:20;;;;;;;1.50;0.55;;;;;;;;;;5053100;28;20108;-60
2022/08/31 09:48:50;;;;;;;2.55;1.33;;;;;;;;;;5050382;28;20404;-60
2022/08/31 09:51:20;;;;;;;2.75;0.68;;;;;;;;;;5051231;28;20028;-59
2022/08/31 09:56:34;;;;;;;2.05;0.70;;;;;;;;;;5050077;28;20036;-59
2022/08/31 09:59:01;;;;;;;3.55;0.47;;;;;;;;;;5049950;28;20040;-60
2022/08/31 10:01:36;;;;;;;1.70;0.55;;;;;;;;;;5049465;28;20037;-60
2022/08/31 10:04:17;;;;;;;4.80;0.57;;;;;;;;;;5049791;28;20060;-60
2022/08/31 10:06:55;;;;;;;1.40;0.40;;;;;;;;;;5051105;28;20028;-59
2022/08/31 10:09:26;;;;;;;1.20;0.60;;;;;;;;;;5051099;28;20041;-60
2022/08/31 10:11:56;;;;;;;3.47;0.50;;;;;;;;;;5050609;28;20028;-59
2022/08/31 10:14:30;;;;;;;1.80;0.80;;;;;;;;;;5052652;28;20029;-60
2022/08/31 10:17:10;;;;;;;3.25;0.63;;;;;;;;;;5046934;28;20078;-59
2022/08/31 10:19:50;;;;;;;3.40;0.60;;;;;;;;;;5051998;28;20475;-60
2022/08/31 10:22:24;;;;;;;4.13;0.65;;;;;;;;;;5052499;28;20037;-59
2022/08/31 10:25:01;;;;;;;0.93;0.45;;;;;;;;;;5051282;28;20036;-60
2022/08/31 10:27:37;;;;;;;2.10;0.70;;;;;;;;;;5050810;28;20079;-60
2022/08/31 10:30:04;;;;;;;1.35;0.60;;;;;;;;;;5042761;28;20029;-59
2022/08/31 10:32:33;;;;;;;2.63;0.32;;;;;;;;;;5049635;28;20078;-60
2022/08/31 10:35:05;;;;;;;4.03;0.52;;;;;;;;;;5049268;28;20037;-59
2022/08/31 10:37:42;;;;;;;1.55;0.95;;;;;;;;;;5052167;28;20035;-59
2022/08/31 10:40:11;;;;;;;3.22;0.45;;;;;;;;;;5054078;28;20040;-59
2022/08/31 10:42:40;;;;;;;2.17;0.35;;;;;;;;;;5051870;28;20021;-60
2022/08/31 10:45:15;;;;;;;2.90;0.80;;;;;;;;;;5049341;28;20090;-61
2022/08/31 10:47:45;;;;;;;1.05;0.40;;;;;;;;;;5043174;28;20025;-61
2022/08/31 10:50:12;;;;;;;1.48;0.47;;;;;;;;;;5047873;28;20053;-60
2022/08/31 10:53:01;;;;;;;2.38;0.52;;;;;;;;;;5051276;28;20427;-60
2022/08/31 10:55:38;;;;;;;0.93;0.32;;;;;;;;;;5040203;28;20472;-60
2022/08/31 10:58:24;;;;;;;1.83;0.57;;;;;;;;;;5051085;28;20025;-59
2022/08/31 11:00:56;;;;;;;1.63;0.28;;;;;;;;;;5043821;28;20029;-60
2022/08/31 11:03:25;;;;;;;4.30;0.50;;;;;;;;;;5045820;28;20044;-60
2022/08/31 11:06:00;;;;;;;2.33;0.40;;;;;;;;;;5051073;28;20032;-59
2022/08/31 11:08:34;;;;;;;1.20;0.30;;;;;;;;;;5050167;28;20037;-59
2022/08/31 11:11:01;;;;;;;1.13;0.40;;;;;;;;;;5049624;28;20037;-60
2022/08/31 11:13:37;;;;;;;1.85;0.60;;;;;;;;;;5051461;28;20468;-60
2022/08/31 11:16:03;;;;;;;0.95;0.40;;;;;;;;;;5050782;28;20464;-60
2022/08/31 11:18:38;;;;;;;1.85;0.65;;;;;;;;;;5048667;28;20037;-60
2022/08/31 11:21:35;;;;;;;2.83;0.50;;;;;;;;;;5051451;28;20029;-60
2022/08/31 11:24:21;;;;;;;0.90;0.38;;;;;;;;;;5051634;28;20373;-59
2022/08/31 11:26:50;;;;;;;2.88;0.40;;;;;;;;;;5051403;28;20460;-60
2022/08/31 11:29:40;;;;;;;2.80;0.35;;;;;;;;;;5051131;28;20079;-60
2022/08/31 11:32:10;;;;;;;1.23;0.40;;;;;;;;;;5051246;28;20051;-60
2022/08/31 11:34:44;;;;;;;1.80;0.45;;;;;;;;;;5049741;28;20493;-60
2022/08/31 11:37:12;;;;;;;5.20;0.88;;;;;;;;;;5051348;28;20021;-60
2022/08/31 11:39:43;;;;;;;1.20;0.45;;;;;;;;;;5050334;28;20036;-60
2022/08/31 11:42:11;;;;;;;3.15;0.52;;;;;;;;;;5051309;28;20505;-60
2022/08/31 11:44:40;;;;;;;2.33;0.50;;;;;;;;;;5050819;28;20159;-59
2022/08/31 11:47:08;;;;;;;4.75;0.50;;;;;;;;;;5051270;28;20484;-59
2022/08/31 11:49:35;;;;;;;1.92;0.32;;;;;;;;;;5051375;28;20028;-59
2022/08/31 11:52:04;;;;;;;2.08;0.60;;;;;;;;;;5049149;28;20029;-60
2022/08/31 11:54:40;;;;;;;2.50;0.40;;;;;;;;;;5051514;28;20071;-59
2022/08/31 11:57:06;;;;;;;1.30;0.40;;;;;;;;;;5051551;28;20033;-59
2022/08/31 11:59:34;;;;;;;1.38;0.70;;;;;;;;;;5050321;28;20372;-60
2022/08/31 12:02:20;;;;;;;3.78;0.55;;;;;;;;;;5050603;28;20369;-59
2022/08/31 12:04:52;;;;;;;1.67;0.45;;;;;;;;;;5051015;28;20032;-59
2022/08/31 12:07:39;;;;;;;1.95;0.40;;;;;;;;;;5049095;28;20175;-59
2022/08/31 12:10:15;;;;;;;0.85;0.35;;;;;;;;;;5050407;28;20059;-60
2022/08/31 12:12:41;;;;;;;1.95;0.63;;;;;;;;;;5051131;28;20112;-60
2022/08/31 12:15:12;;;;;;;1.90;0.43;;;;;;;;;;5050670;28;20068;-60
2022/08/31 12:17:38;;;;;;;3.67;0.60;;;;;;;;;;5051025;28;20033;-61
2022/08/31 12:20:07;;;;;;;1.58;0.50;;;;;;;;;;5053706;28;20043;-61
2022/08/31 12:25:56;;;;;;;1.50;0.45;;;;;;;;;;5055087;28;20091;-60
2022/08/31 12:28:37;;;;;;;0.98;0.47;;;;;;;;;;5054633;28;20021;-59
2022/08/31 12:31:06;;;;;;;0.98;0.40;;;;;;;;;;5054127;28;20488;-58
2022/08/31 12:33:33;;;;;;;2.00;0.80;;;;;;;;;;5046308;28;20027;-58
2022/08/31 12:36:17;;;;;;;0.95;0.45;;;;;;;;;;5051686;28;20029;-58
2022/08/31 12:38:43;;;;;;;1.30;0.30;;;;;;;;;;5054479;28;20028;-58
2022/08/31 12:41:09;;;;;;;1.70;0.40;;;;;;;;;;5053977;28;20304;-57
2022/08/31 12:43:38;;;;;;;0.43;0.20;;;;;;;;;;5054221;28;20108;-58
2022/08/31 12:46:04;;;;;;;1.38;0.35;;;;;;;;;;5054163;28;20455;-58
2022/08/31 12:48:35;;;;;;;0.22;0.17;;;;;;;;;;5054174;28;20027;-58
2022/08/31 12:51:10;;;;;;;1.88;0.40;;;;;;;;;;5052313;28;20040;-58
2022/08/31 12:53:43;;;;;;;1.88;0.50;;;;;;;;;;5052297;28;20417;-60
2022/08/31 12:56:09;;;;;;;1.15;0.40;;;;;;;;;;5053891;28;20032;-61
2022/08/31 12:58:51;;;;;;;2.95;0.35;;;;;;;;;;5050999;28;20035;-60
2022/08/31 13:01:25;;;;;;;1.52;0.38;;;;;;;;;;5044149;28;20507;-60
2022/08/31 13:04:01;;;;;;;1.67;0.55;;;;;;;;;;5052065;28;20103;-60
2022/08/31 13:06:29;;;;;;;1.17;0.40;;;;;;;;;;5043297;28;20390;-61
2022/08/31 13:08:57;;;;;;;0.77;0.30;;;;;;;;;;5043318;28;20045;-61
2022/08/31 13:11:24;;;;;;;0.60;0.40;;;;;;;;;;5036769;28;20107;-60
2022/08/31 13:13:51;;;;;;;1.05;0.40;;;;;;;;;;5036698;28;20025;-60
2022/08/31 13:16:17;;;;;;;0.85;0.30;;;;;;;;;;5046149;28;20035;-58
2022/08/31 13:18:45;;;;;;;2.17;0.50;;;;;;;;;;5052707;28;20057;-59
2022/08/31 13:21:11;;;;;;;1.25;0.32;;;;;;;;;;5049268;28;20033;-58
2022/08/31 13:23:39;;;;;;;1.38;0.50;;;;;;;;;;5043171;28;20089;-58
2022/08/31 13:26:20;;;;;;;0.22;0.05;;;;;;;;;;5051283;28;20029;-60
2022/08/31 13:28:59;;;;;;;2.28;0.70;;;;;;;;;;5053038;28;20424;-58
2022/08/31 13:31:30;;;;;;;1.02;0.32;;;;;;;;;;5050762;28;20033;-58
2022/08/31 13:34:00;;;;;;;1.05;0.50;;;;;;;;;;5051830;28;20464;-59
2022/08/31 13:36:32;;;;;;;1.15;0.43;;;;;;;;;;5050672;28;20029;-58
2022/08/31 13:39:11;;;;;;;1.27;0.40;;;;;;;;;;5051210;28;20021;-58
2022/08/31 13:41:38;;;;;;;2.97;0.38;;;;;;;;;;5051671;28;20028;-58
2022/08/31 13:44:07;;;;;;;2.40;0.40;;;;;;;;;;5053154;28;20031;-58
2022/08/31 13:46:38;;;;;;;1.90;0.40;;;;;;;;;;5052168;28;20017;-59
2022/08/31 13:49:06;;;;;;;2.13;0.43;;;;;;;;;;5052648;28;20052;-58
2022/08/31 13:51:36;;;;;;;1.88;0.40;;;;;;;;;;5052422;28;20104;-58
2022/08/31 13:54:02;;;;;;;1.00;0.30;;;;;;;;;;5051546;28;20029;-58
2022/08/31 13:59:30;;;;;;;2.75;0.52;;;;;;;;;;5048418;28;20040;-60
2022/08/31 14:01:56;;;;;;;3.53;0.55;;;;;;;;;;5049122;28;20446;-60
2022/08/31 14:04:37;;;;;;;3.50;0.50;;;;;;;;;;5045804;28;20033;-60
2022/08/31 14:07:04;;;;;;;4.13;0.40;;;;;;;;;;5048353;28;20052;-60
2022/08/31 14:09:30;;;;;;;1.58;0.65;;;;;;;;;;5048153;28;20057;-60
2022/08/31 14:12:04;;;;;;;6.28;0.77;;;;;;;;;;5046753;28;20487;-60
2022/08/31 14:14:39;;;;;;;4.13;0.50;;;;;;;;;;5046651;28;20120;-60
2022/08/31 14:17:05;;;;;;;2.08;0.85;;;;;;;;;;5051776;28;20507;-59
2022/08/31 14:19:32;;;;;;;1.83;0.38;;;;;;;;;;5050044;28;20037;-60
2022/08/31 14:22:15;;;;;;;0.77;0.50;;;;;;;;;;5051525;28;20488;-62
2022/08/31 14:24:42;;;;;;;6.45;1.33;;;;;;;;;;5047454;28;20029;-59
2022/08/31 14:27:10;;;;;;;1.13;0.43;;;;;;;;;;5052240;28;20067;-58
2022/08/31 14:29:40;;;;;;;1.75;0.60;;;;;;;;;;5049159;28;20474;-60
2022/08/31 14:32:06;;;;;;;0.93;0.30;;;;;;;;;;5050317;28;20469;-59
2022/08/31 14:34:35;;;;;;;2.30;0.32;;;;;;;;;;5049954;28;20029;-59
2022/08/31 14:37:05;;;;;;;0.70;0.32;;;;;;;;;;5044067;28;20508;-59
2022/08/31 14:39:40;;;;;;;2.28;0.30;;;;;;;;;;5046594;28;20037;-58
2022/08/31 14:42:17;;;;;;;2.08;0.45;;;;;;;;;;5051017;28;20092;-60
2022/08/31 14:45:03;;;;;;;1.25;0.35;;;;;;;;;;5051361;28;20479;-61
2022/08/31 14:47:31;;;;;;;1.17;0.57;;;;;;;;;;5051143;28;20107;-60
2022/08/31 14:49:58;;;;;;;1.27;0.40;;;;;;;;;;5047565;28;20033;-60
2022/08/31 14:52:27;;;;;;;0.80;0.40;;;;;;;;;;5047101;28;20017;-60
2022/08/31 14:54:53;;;;;;;1.48;0.50;;;;;;;;;;5052000;28;20052;-60
2022/08/31 14:57:24;;;;;;;1.33;0.40;;;;;;;;;;5041016;28;20104;-61
2022/08/31 14:59:58;;;;;;;0.75;0.32;;;;;;;;;;5051649;28;20039;-60
2022/08/31 15:02:25;;;;;;;1.48;0.38;;;;;;;;;;5051960;28;20637;-60
2022/08/31 15:04:51;;;;;;;1.00;0.40;;;;;;;;;;5049991;28;20043;-60
2022/08/31 15:07:18;;;;;;;1.77;0.32;;;;;;;;;;5050022;28;20083;-59
2022/08/31 15:09:45;;;;;;;0.80;0.45;;;;;;;;;;5039113;28;20044;-59
2022/08/31 15:12:11;;;;;;;4.57;0.50;;;;;;;;;;5049934;28;20451;-59